PDT,Max TemperatureF,Mean TemperatureF,Min TemperatureF,Max Dew PointF,MeanDew PointF,Min DewpointF,Max Humidity, Mean Humidity, Min Humidity, Max Sea Level PressureIn, Mean Sea Level PressureIn, Min Sea Level PressureIn, Max VisibilityMiles, Mean VisibilityMiles, Min VisibilityMiles, Max Wind SpeedMPH, Mean Wind SpeedMPH, Max Gust SpeedMPH,PrecipitationIn, CloudCover, Events, WindDirDegrees
2013-10-1,71,68,64,63,59,57,87,77,66,29.96,29.93,29.90,10,10,8,10,8,16,0.00,6,,177
2013-10-2,70,67,64,57,56,54,78,70,61,29.99,29.95,29.91,10,10,10,12,7,16,0.00,6,,195
2013-10-3,72,68,64,58,56,54,73,67,61,29.96,29.91,29.87,10,10,8,12,6,20,0.00,6,,193
2013-10-4,74,69,64,59,56,54,68,61,53,30.03,29.96,29.90,10,9,7,10,5,17,0.00,2,,260
2013-10-5,85,72,58,59,36,13,84,46,7,30.10,30.05,30.02,10,10,8,15,5,18,0.00,0,,326
2013-10-6,88,74,60,49,33,15,34,21,8,30.07,30.02,29.96,10,10,10,16,5,23,0.00,3,,324
2013-10-7,80,72,64,61,50,29,61,39,16,29.99,29.96,29.93,10,10,10,12,4,16,0.00,4,,284
2013-10-8,69,67,64,59,54,50,84,71,57,29.96,29.91,29.87,10,10,5,13,5,18,0.00,5,,219
2013-10-9,66,64,61,54,50,48,72,64,56,29.87,29.83,29.78,10,9,2,24,12,29,0.02,7,Rain,234
2013-10-10,68,63,57,50,49,45,77,63,48,30.03,29.97,29.85,10,10,9,14,6,18,T,3,,272
2013-10-11,71,64,56,56,52,47,72,60,47,30.05,30.00,29.96,10,10,8,17,6,22,0.00,1,,323
2013-10-12,70,66,62,56,55,54,78,70,61,29.99,29.96,29.93,10,10,7,15,5,20,0.00,5,,323
2013-10-13,68,66,63,54,53,51,72,64,55,30.04,30.00,29.96,10,10,10,13,5,17,0.00,5,,270
2013-10-14,74,65,55,60,55,49,83,67,51,30.03,29.97,29.91,10,8,6,16,5,21,0.00,0,,319
2013-10-15,76,67,57,61,56,45,84,64,44,29.97,29.93,29.89,10,8,5,8,3,,0.00,0,,189
2013-10-16,84,71,58,55,37,23,78,45,11,30.06,30.01,29.97,10,10,8,14,4,16,0.00,0,,315
2013-10-17,82,71,59,55,39,25,50,32,13,30.04,29.99,29.94,10,10,9,13,3,16,0.00,0,,323
2013-10-18,77,68,59,61,50,37,61,46,31,30.02,29.98,29.93,10,9,3,15,4,18,0.00,1,,315
2013-10-19,75,66,57,61,55,41,93,65,36,30.03,30.00,29.97,10,7,0,14,4,17,0.00,2,Fog,332
2013-10-20,70,63,56,59,56,54,100,81,61,30.01,29.97,29.93,10,4,0,13,5,16,0.00,4,Fog,327
2013-10-21,70,63,55,57,55,51,93,75,57,30.00,29.97,29.93,10,5,1,13,5,16,0.00,5,,341
2013-10-22,69,64,59,56,55,54,87,75,63,30.01,29.98,29.94,9,6,4,13,6,16,0.00,6,,338
2013-10-23,68,66,63,56,55,54,73,68,63,29.99,29.96,29.94,10,9,7,13,5,17,0.00,8,,299
2013-10-24,68,66,64,55,53,52,67,63,58,30.07,30.02,29.97,10,10,9,15,8,17,0.00,7,,309
2013-10-25,70,67,64,58,55,54,67,63,59,30.12,30.07,30.01,9,6,4,16,7,20,0.00,5,,342
2013-10-26,71,66,61,59,57,56,84,75,66,30.10,30.04,29.99,5,3,2,14,6,17,0.00,7,,326
2013-10-27,68,64,59,58,56,55,90,77,63,30.00,29.94,29.87,10,5,1,12,4,14,0.00,7,,301
2013-10-28,65,62,59,58,54,51,84,74,63,29.96,29.93,29.88,10,9,2,14,8,16,0.01,7,Rain,217
2013-10-29,67,62,57,56,51,45,86,66,45,30.03,29.99,29.95,10,10,6,12,5,15,0.16,4,Rain,297
2013-10-30,68,62,56,53,50,47,77,63,48,30.07,30.04,30.00,10,10,9,16,5,20,0.00,2,,334
2013-10-31,74,65,55,52,47,38,83,56,29,30.09,30.04,29.99,10,10,9,14,5,18,0.00,0,,326